createdAt,value
2022-11-28T00:01:22.764Z,100932.47
2022-11-28T00:03:50.596Z,100930.41
2022-11-28T00:06:20.259Z,100918.84
2022-11-28T00:08:48.375Z,100926.06
2022-11-28T00:11:17.338Z,100914.50
2022-11-28T00:13:45.487Z,100918.00
2022-11-28T00:16:17.263Z,100915.31
2022-11-28T00:18:45.313Z,100911.22
2022-11-28T00:21:14.720Z,100909.97
2022-11-28T00:23:45.665Z,100919.06
2022-11-28T00:26:16.553Z,100913.69
2022-11-28T00:28:44.521Z,100908.91
2022-11-28T00:31:14.987Z,100911.59
2022-11-28T00:33:42.932Z,100902.94
2022-11-28T00:36:11.195Z,100903.97
2022-11-28T00:38:39.132Z,100894.06
2022-11-28T00:41:10.444Z,100901.28
2022-11-28T00:43:38.678Z,100902.34
2022-11-28T00:46:07.045Z,100903.97
2022-11-28T00:48:36.121Z,100892.41
2022-11-28T00:51:08.692Z,100895.94
2022-11-28T00:53:36.836Z,100892.63
2022-11-28T00:56:05.743Z,100883.75
2022-11-28T00:58:35.698Z,100890.56
2022-11-28T01:01:09.066Z,100899.44
2022-11-28T01:03:36.836Z,100894.88
2022-11-28T01:06:04.783Z,100891.38
2022-11-28T01:08:32.666Z,100894.06
2022-11-28T01:11:00.470Z,100885.19
2022-11-28T01:13:28.505Z,100885.19
2022-11-28T01:15:58.709Z,100888.09
2022-11-28T01:18:26.458Z,100892.63
2022-11-28T01:20:54.166Z,100885.63
2022-11-28T01:23:21.841Z,100888.09
2022-11-28T01:25:49.496Z,100891.81
2022-11-28T01:28:17.232Z,100890.78
2022-11-28T01:30:45.221Z,100890.78
2022-11-28T01:33:14.263Z,100887.28
2022-11-28T01:35:42.011Z,100889.94
2022-11-28T01:38:09.726Z,100882.94
2022-11-28T01:40:45.082Z,100889.94
2022-11-28T01:43:12.774Z,100888.09
2022-11-28T01:45:41.140Z,100885.63
2022-11-28T01:48:12.806Z,100889.13
2022-11-28T01:50:46.067Z,100889.13
2022-11-28T01:53:14.637Z,100882.72
2022-11-28T01:55:53.160Z,100880.03
2022-11-28T01:58:21.036Z,100889.72
2022-11-28T02:00:49.584Z,100880.03
2022-11-28T02:03:22.795Z,100879.22
2022-11-28T02:05:52.752Z,100880.88
2022-11-28T02:08:20.709Z,100871.16
2022-11-28T02:11:10.861Z,100879.00
2022-11-28T02:13:46.334Z,100869.91
2022-11-28T02:16:38.986Z,100865.56
2022-11-28T02:19:36.959Z,100859.38
2022-11-28T02:22:08.499Z,100856.50
2022-11-28T02:25:04.243Z,100861.03
2022-11-28T02:28:04.875Z,100858.13
2022-11-28T02:30:41.877Z,100866.19
2022-11-28T02:33:17.515Z,100861.03
2022-11-28T02:35:56.820Z,100855.06
2022-11-28T02:38:37.294Z,100856.72
2022-11-28T02:41:14.159Z,100861.84
2022-11-28T02:43:45.527Z,100863.94
2022-11-28T02:46:18.229Z,100858.78
2022-11-28T02:48:53.904Z,100864.97
2022-11-28T02:51:27.793Z,100865.78
2022-11-28T02:53:57.819Z,100860.22
2022-11-28T02:56:26.594Z,100864.75
2022-11-28T02:58:54.831Z,100857.75
2022-11-28T03:01:25.378Z,100857.13
2022-11-28T03:04:22.276Z,100857.97
2022-11-28T03:07:00.012Z,100850.72
2022-11-28T03:09:50.422Z,100853.41
2022-11-28T03:12:26.486Z,100844.53
2022-11-28T03:14:56.365Z,100846.41
2022-11-28T03:17:32.396Z,100844.53
2022-11-28T03:20:14.089Z,100843.09
2022-11-28T03:22:50.158Z,100843.72
2022-11-28T03:25:26.232Z,100838.56
2022-11-28T03:28:00.087Z,100836.72
2022-11-28T03:30:33.396Z,100842.06
2022-11-28T03:33:03.098Z,100842.91
2022-11-28T03:35:37.654Z,100841.25
2022-11-28T03:38:09.034Z,100840.44
2022-11-28T03:40:40.488Z,100847.44
2022-11-28T03:43:12.360Z,100833.19
2022-11-28T03:45:46.039Z,100839.16
2022-11-28T03:48:17.627Z,100836.91
2022-11-28T03:50:51.582Z,100834.25
2022-11-28T03:53:23.845Z,100836.09
2022-11-28T03:55:56.675Z,100848.69
2022-11-28T03:58:29.084Z,100838.56
2022-11-28T04:01:04.765Z,100842.28
2022-11-28T04:03:42.258Z,100842.28
2022-11-28T04:06:17.757Z,100839.38
2022-11-28T04:08:50.731Z,100832.38
2022-11-28T04:11:21.545Z,100841.25
2022-11-28T04:13:55.737Z,100854.88
2022-11-28T04:16:32.009Z,100845.56
2022-11-28T04:19:03.306Z,100839.16
2022-11-28T04:21:36.772Z,100839.16
2022-11-28T04:24:09.107Z,100844.53
2022-11-28T04:26:41.798Z,100836.91
2022-11-28T04:29:12.102Z,100843.72
2022-11-28T04:31:41.684Z,100842.06
2022-11-28T04:34:12.621Z,100845.56
2022-11-28T04:36:44.865Z,100853.41
2022-11-28T04:39:16.381Z,100841.84
2022-11-28T04:41:49.426Z,100841.25
2022-11-28T04:44:24.405Z,100846.41
2022-11-28T04:46:55.328Z,100849.31
2022-11-28T04:49:24.118Z,100855.50
2022-11-28T04:51:59.217Z,100844.97
2022-11-28T04:54:33.671Z,100843.94
2022-11-28T04:57:04.810Z,100842.06
2022-11-28T04:59:33.559Z,100843.09
2022-11-28T05:02:05.627Z,100848.69
2022-11-28T05:04:36.654Z,100850.34
2022-11-28T05:07:07.580Z,100848.69
2022-11-28T05:09:35.694Z,100845.78
2022-11-28T05:12:03.347Z,100843.09
2022-11-28T05:14:31.046Z,100851.16
2022-11-28T05:16:58.769Z,100851.16
2022-11-28T05:19:26.626Z,100853.03
2022-11-28T05:21:54.289Z,100857.34
2022-11-28T05:24:26.765Z,100861.69
2022-11-28T05:26:57.000Z,100845.78
2022-11-28T05:29:24.931Z,100855.72
2022-11-28T05:31:52.699Z,100859.44
2022-11-28T05:34:20.466Z,100860.25
2022-11-28T05:36:48.113Z,100864.78
2022-11-28T05:39:15.838Z,100860.25
2022-11-28T05:41:44.887Z,100854.28
2022-11-28T05:44:12.549Z,100858.81
2022-11-28T05:46:40.271Z,100869.34
2022-11-28T05:49:07.998Z,100835.34
2022-11-28T05:51:35.668Z,100851.97
2022-11-28T05:54:03.330Z,100851.97
2022-11-28T05:56:30.990Z,100847.44
2022-11-28T05:59:00.088Z,100855.50
2022-11-28T06:01:29.922Z,100853.84
2022-11-28T06:04:00.726Z,100856.53
2022-11-28T06:06:30.005Z,100851.38
2022-11-28T06:08:58.688Z,100852.19
2022-11-28T06:11:29.740Z,100849.50
2022-11-28T06:13:57.509Z,100847.63
2022-11-28T06:16:28.309Z,100854.53
2022-11-28T06:18:57.588Z,100857.94
2022-11-28T06:21:26.364Z,100860.13
2022-11-28T06:23:54.716Z,100857.59
2022-11-28T06:26:24.403Z,100867.50
2022-11-28T06:28:52.478Z,100869.81
2022-11-28T06:31:22.102Z,100859.94
2022-11-28T06:33:51.885Z,100869.47
2022-11-28T06:36:20.997Z,100870.09
2022-11-28T06:38:49.178Z,100876.97
2022-11-28T06:41:19.808Z,100878.44
2022-11-28T06:43:47.477Z,100875.13
2022-11-28T06:46:17.017Z,100875.56
2022-11-28T06:48:44.996Z,100867.53
2022-11-28T06:51:14.177Z,100876.63
2022-11-28T06:53:42.317Z,100874.38
2022-11-28T06:56:11.938Z,100866.75
2022-11-28T06:58:39.609Z,100878.53
2022-11-28T07:01:09.161Z,100878.75
2022-11-28T07:03:37.437Z,100867.19
2022-11-28T07:06:06.198Z,100881.84
2022-11-28T07:08:35.636Z,100887.00
2022-11-28T07:11:11.810Z,100884.53
2022-11-28T07:13:40.113Z,100872.97
2022-11-28T07:16:08.834Z,100888.91
2022-11-28T07:18:36.626Z,100886.22
2022-11-28T07:21:04.520Z,100888.09
2022-11-28T07:23:32.205Z,100888.91
2022-11-28T07:26:02.147Z,100885.19
2022-11-28T07:28:31.426Z,100896.75
2022-11-28T07:31:01.617Z,100894.28
2022-11-28T07:33:29.582Z,100890.56
2022-11-28T07:36:01.224Z,100895.53
2022-11-28T07:38:31.062Z,100900.91
2022-11-28T07:41:05.698Z,100904.41
2022-11-28T07:43:33.604Z,100904.41
2022-11-28T07:46:04.500Z,100905.22
2022-11-28T07:48:32.180Z,100906.28
2022-11-28T07:50:59.945Z,100909.56
2022-11-28T07:53:27.596Z,100909.78
2022-11-28T07:55:55.230Z,100920.31
2022-11-28T07:58:24.255Z,100924.84
2022-11-28T08:00:51.928Z,100919.47
2022-11-28T08:03:19.621Z,100902.81
2022-11-28T08:05:49.562Z,100917.63
2022-11-28T08:08:17.659Z,100923.19
2022-11-28T08:10:46.197Z,100920.72
2022-11-28T08:13:15.191Z,100922.59
2022-11-28T08:15:44.375Z,100921.56
2022-11-28T08:18:13.034Z,100925.06
2022-11-28T08:20:40.714Z,100925.88
2022-11-28T08:23:08.421Z,100921.56
2022-11-28T08:25:36.152Z,100929.41
2022-11-28T08:28:03.875Z,100927.75
2022-11-28T08:30:31.723Z,100923.41
2022-11-28T08:33:00.792Z,100933.94
2022-11-28T08:35:28.444Z,100928.56
2022-11-28T08:38:01.434Z,100933.13
2022-11-28T08:40:29.794Z,100939.53
2022-11-28T08:42:59.424Z,100936.63
2022-11-28T08:45:27.129Z,100939.09
2022-11-28T08:47:54.829Z,100939.69
2022-11-28T08:50:23.881Z,100936.72
2022-11-28T08:52:51.531Z,100940.59
2022-11-28T08:55:23.679Z,100941.53
2022-11-28T08:57:59.353Z,100939.09
2022-11-28T09:00:27.047Z,100926.59
2022-11-28T09:02:54.742Z,100931.19
2022-11-28T09:05:23.822Z,100939.72
2022-11-28T09:07:51.608Z,100941.84
2022-11-28T09:10:19.361Z,100939.25
2022-11-28T09:12:46.990Z,100934.97
2022-11-28T09:15:14.680Z,100944.09
2022-11-28T09:17:42.416Z,100944.00
2022-11-28T09:20:10.889Z,100946.19
2022-11-28T09:22:40.775Z,100950.28
2022-11-28T09:25:09.711Z,100946.53
2022-11-28T09:27:37.377Z,100945.88
2022-11-28T09:30:05.919Z,100949.97
2022-11-28T09:32:33.769Z,100953.50
2022-11-28T09:35:01.547Z,100953.06
2022-11-28T09:37:29.620Z,100961.16
2022-11-28T09:40:12.675Z,100951.56
2022-11-28T09:42:44.120Z,100947.81
2022-11-28T09:45:16.399Z,100942.22
2022-11-28T09:47:48.619Z,100951.09
2022-11-28T09:50:20.928Z,100947.59
2022-11-28T09:52:56.779Z,100957.31
2022-11-28T09:55:34.951Z,100959.09
2022-11-28T09:58:07.723Z,100957.59
2022-11-28T10:00:39.231Z,100955.25
2022-11-28T10:03:34.086Z,100953.16
2022-11-28T10:06:12.603Z,100953.53
2022-11-28T10:08:53.193Z,100954.59
2022-11-28T10:11:36.158Z,100952.94
2022-11-28T10:14:17.086Z,100955.31
2022-11-28T10:16:55.888Z,100964.53
2022-11-28T10:19:53.763Z,100956.84
2022-11-28T10:22:36.009Z,100952.53
2022-11-28T10:25:11.417Z,100960.63
2022-11-28T10:27:41.659Z,100958.53
2022-11-28T10:30:17.592Z,100954.09
2022-11-28T10:32:52.445Z,100958.13
2022-11-28T10:35:28.715Z,100951.50
2022-11-28T10:37:57.021Z,100962.94
2022-11-28T10:40:33.968Z,100964.44
2022-11-28T10:43:07.365Z,100963.00
2022-11-28T10:45:49.315Z,100958.66
2022-11-28T10:48:41.786Z,100963.44
2022-11-28T10:51:25.147Z,100961.19
2022-11-28T10:54:05.602Z,100966.31
2022-11-28T10:56:41.358Z,100969.94
2022-11-28T10:59:21.694Z,100974.22
2022-11-28T11:01:52.206Z,100974.81
2022-11-28T11:04:22.351Z,100972.28
2022-11-28T11:07:16.173Z,100978.63
2022-11-28T11:09:47.188Z,100977.06
2022-11-28T11:12:21.706Z,100971.38
2022-11-28T11:14:50.764Z,100965.09
2022-11-28T11:17:36.276Z,100969.13
2022-11-28T11:20:26.275Z,100962.25
2022-11-28T11:22:55.925Z,100966.66
2022-11-28T11:25:25.402Z,100968.38
2022-11-28T11:27:55.408Z,100967.38
2022-11-28T11:30:28.926Z,100974.84
2022-11-28T11:32:58.391Z,100964.75
2022-11-28T11:35:28.935Z,100959.81
2022-11-28T11:38:17.386Z,100958.63
2022-11-28T11:40:45.245Z,100955.31
2022-11-28T11:43:26.104Z,100965.47
2022-11-28T11:46:10.192Z,100963.84
2022-11-28T11:48:40.463Z,100962.41
2022-11-28T11:51:21.320Z,100967.19
2022-11-28T11:53:49.536Z,100963.06
2022-11-28T11:56:17.527Z,100970.09
2022-11-28T11:58:48.781Z,100973.00
2022-11-28T12:01:22.985Z,100969.69
2022-11-28T12:03:56.151Z,100962.47
2022-11-28T12:06:28.854Z,100973.53
2022-11-28T12:09:19.089Z,100966.56
2022-11-28T12:11:53.064Z,100971.59
2022-11-28T12:14:28.429Z,100966.00
2022-11-28T12:17:40.407Z,100962.25
2022-11-28T12:20:13.737Z,100960.97
2022-11-28T12:22:49.405Z,100964.94
2022-11-28T12:25:26.782Z,100970.28
2022-11-28T12:28:06.505Z,100965.72
2022-11-28T12:30:51.391Z,100969.28
2022-11-28T12:33:36.046Z,100970.81
2022-11-28T12:36:10.885Z,100972.22
2022-11-28T12:38:58.387Z,100968.56
2022-11-28T12:41:42.790Z,100970.25
2022-11-28T12:44:20.760Z,100969.41
2022-11-28T12:46:56.655Z,100971.69
2022-11-28T12:49:36.498Z,100970.56
2022-11-28T12:52:18.970Z,100961.97
2022-11-28T12:55:12.736Z,100966.81
2022-11-28T12:57:48.527Z,100963.97
2022-11-28T13:00:19.687Z,100961.13
2022-11-28T13:03:01.681Z,100956.44
2022-11-28T13:05:45.341Z,100966.59
2022-11-28T13:08:36.050Z,100957.91
2022-11-28T13:11:14.141Z,100969.34
2022-11-28T13:13:48.008Z,100968.13
2022-11-28T13:16:27.281Z,100966.72
2022-11-28T13:18:59.602Z,100968.81
2022-11-28T13:21:40.192Z,100974.41
2022-11-28T13:24:26.697Z,100975.66
2022-11-28T13:27:04.076Z,100975.88
2022-11-28T13:29:38.951Z,100972.59
2022-11-28T13:32:16.523Z,100969.09
2022-11-28T13:34:45.132Z,100977.16
2022-11-28T13:40:17.892Z,100976.56
2022-11-28T13:43:09.326Z,100973.25
2022-11-28T13:45:39.531Z,100979.25
2022-11-28T13:51:31.846Z,100978.03
2022-11-28T13:54:45.641Z,100988.78
2022-11-28T13:57:23.182Z,100981.38
2022-11-28T13:59:59.585Z,100989.00
2022-11-28T14:02:36.547Z,100990.06
2022-11-28T14:05:07.322Z,100990.88
2022-11-28T14:07:36.140Z,100998.94
2022-11-28T14:10:24.387Z,100997.28
2022-11-28T14:13:07.497Z,100995.00
2022-11-28T14:15:46.606Z,101005.19
2022-11-28T14:18:56.200Z,100997.97
2022-11-28T14:21:26.587Z,100998.59
2022-11-28T14:24:03.767Z,101005.63
2022-11-28T14:26:35.227Z,101004.22
2022-11-28T14:29:08.216Z,100998.59
2022-11-28T14:31:38.207Z,101011.41
2022-11-28T14:34:07.601Z,101004.13
2022-11-28T14:36:39.116Z,101019.38
2022-11-28T14:39:12.875Z,101024.94
2022-11-28T14:42:43.944Z,101018.28
2022-11-28T14:45:39.114Z,101021.78
2022-11-28T14:48:28.711Z,101025.44
2022-11-28T14:51:01.624Z,101012.34
2022-11-28T14:53:49.906Z,101017.28
2022-11-28T14:56:25.789Z,101019.81
2022-11-28T14:58:58.440Z,101021.31
2022-11-28T15:01:37.877Z,101026.09
2022-11-28T15:04:21.009Z,101024.06
2022-11-28T15:06:50.295Z,101033.38
2022-11-28T15:09:22.325Z,101028.47
2022-11-28T15:12:11.535Z,101027.25
2022-11-28T15:14:39.861Z,101030.75
2022-11-28T15:17:13.241Z,101034.50
2022-11-28T15:19:46.801Z,101040.09
2022-11-28T15:22:31.907Z,101032.69
2022-11-28T15:25:00.332Z,101046.13
2022-11-28T15:27:28.968Z,101045.31
2022-11-28T15:29:58.656Z,101035.59
2022-11-28T15:32:28.428Z,101041.81
2022-11-28T15:35:00.971Z,101050.91
2022-11-28T15:37:31.056Z,101061.06
2022-11-28T15:40:00.257Z,101067.50
2022-11-28T15:42:30.374Z,101070.63
2022-11-28T15:45:00.839Z,101069.78
2022-11-28T15:47:29.472Z,101069.78
2022-11-28T15:50:03.938Z,101071.66
2022-11-28T15:52:31.970Z,101061.13
2022-11-28T15:54:59.723Z,101064.84
2022-11-28T15:57:32.252Z,101072.91
2022-11-28T16:00:00.016Z,101070.44
2022-11-28T16:02:32.488Z,101073.13
2022-11-28T16:05:06.898Z,101071.50
2022-11-28T16:07:40.456Z,101073.34
2022-11-28T16:10:22.594Z,101078.72
2022-11-28T16:12:50.909Z,101085.16
2022-11-28T16:15:19.734Z,101076.25
2022-11-28T16:17:47.853Z,101087.03
2022-11-28T16:20:24.390Z,101088.88
2022-11-28T16:22:59.446Z,101100.25
2022-11-28T16:25:28.597Z,101102.31
2022-11-28T16:27:57.506Z,101105.84
2022-11-28T16:30:37.447Z,101104.19
2022-11-28T16:33:35.444Z,101109.56
2022-11-28T16:36:12.453Z,101113.31
2022-11-28T16:38:40.246Z,101116.81
2022-11-28T16:41:15.546Z,101116.00
2022-11-28T16:43:43.391Z,101116.22
2022-11-28T16:46:20.658Z,101124.06
2022-11-28T16:48:50.592Z,101131.09
2022-11-28T16:51:33.702Z,101124.06
2022-11-28T16:54:02.179Z,101128.38
2022-11-28T16:56:44.586Z,101129.44
2022-11-28T16:59:14.705Z,101136.47
2022-11-28T17:01:43.974Z,101135.63
2022-11-28T17:04:21.876Z,101141.00
2022-11-28T17:06:51.557Z,101143.31
2022-11-28T17:09:19.598Z,101151.38
2022-11-28T17:11:51.798Z,101158.19
2022-11-28T17:14:19.460Z,101159.00
2022-11-28T17:16:47.226Z,101161.09
2022-11-28T17:19:14.939Z,101163.56
2022-11-28T17:21:45.339Z,101159.22
2022-11-28T17:24:18.690Z,101159.22
2022-11-28T17:26:46.642Z,101161.91
2022-11-28T17:29:15.817Z,101158.41
2022-11-28T17:31:46.715Z,101154.28
2022-11-28T17:34:16.923Z,101166.69
2022-11-28T17:36:44.547Z,101164.81
2022-11-28T17:39:12.369Z,101167.50
2022-11-28T17:41:41.915Z,101158.63
2022-11-28T17:44:17.402Z,101170.41
2022-11-28T17:46:45.156Z,101163.38
2022-11-28T17:49:12.868Z,101165.03
2022-11-28T17:51:40.903Z,101171.44
2022-11-28T17:54:09.157Z,101170.63
2022-11-28T17:56:36.908Z,101170.84
2022-11-28T17:59:06.026Z,101178.09
2022-11-28T18:01:33.803Z,101178.69
2022-11-28T18:04:01.568Z,101168.97
2022-11-28T18:06:29.253Z,101172.91
2022-11-28T18:08:56.897Z,101168.38
2022-11-28T18:11:24.584Z,101176.44
2022-11-28T18:13:52.265Z,101174.78
2022-11-28T18:16:24.480Z,101173.97
2022-11-28T18:18:53.033Z,101175.81
2022-11-28T18:21:20.914Z,101176.66
2022-11-28T18:23:50.538Z,101184.72
2022-11-28T18:26:20.013Z,101188.22
2022-11-28T18:28:47.870Z,101188.22
2022-11-28T18:31:18.746Z,101192.78
2022-11-28T18:33:47.893Z,101186.78
2022-11-28T18:36:17.884Z,101190.31
2022-11-28T18:38:45.885Z,101192.16
2022-11-28T18:41:14.992Z,101188.66
2022-11-28T18:43:43.934Z,101187.84
2022-11-28T18:46:13.435Z,101186.19
2022-11-28T18:48:43.475Z,101170.31
2022-11-28T18:51:13.880Z,101187.44
2022-11-28T18:53:42.377Z,101192.00
2022-11-28T18:56:11.161Z,101195.72
2022-11-28T18:58:40.895Z,101193.25
2022-11-28T19:01:12.791Z,101202.13
2022-11-28T19:03:40.787Z,101205.25
2022-11-28T19:06:10.926Z,101209.59
2022-11-28T19:08:40.341Z,101207.72
2022-11-28T19:11:10.074Z,101208.75
2022-11-28T19:13:38.185Z,101202.78
2022-11-28T19:16:06.625Z,101208.97
2022-11-28T19:18:34.535Z,101211.66
2022-11-28T19:21:05.161Z,101205.66
2022-11-28T19:23:32.888Z,101210.84
2022-11-28T19:26:03.743Z,101209.59
2022-11-28T19:28:31.428Z,101212.66
2022-11-28T19:31:05.929Z,101220.31
2022-11-28T19:33:33.990Z,101223.00
2022-11-28T19:36:02.697Z,101229.19
2022-11-28T19:38:30.470Z,101224.63
2022-11-28T19:40:58.441Z,101226.50
2022-11-28T19:43:27.539Z,101225.69
2022-11-28T19:45:56.273Z,101231.06
2022-11-28T19:48:24.987Z,101226.72
2022-11-28T19:50:53.414Z,101221.34
2022-11-28T19:53:21.485Z,101224.84
2022-11-28T19:55:49.676Z,101229.19
2022-11-28T19:58:17.937Z,101227.72
2022-11-28T20:00:47.046Z,101228.56
2022-11-28T20:03:14.940Z,101240.13
2022-11-28T20:05:42.842Z,101239.91
2022-11-28T20:08:10.604Z,101241.78
2022-11-28T20:10:39.970Z,101243.44
2022-11-28T20:13:07.786Z,101234.97
2022-11-28T20:15:36.359Z,101248.81
2022-11-28T20:18:05.861Z,101249.03
2022-11-28T20:20:35.027Z,101249.25
2022-11-28T20:23:02.822Z,101245.94
2022-11-28T20:25:30.641Z,101248.00
2022-11-28T20:27:58.305Z,101245.53
2022-11-28T20:30:25.993Z,101252.78
2022-11-28T20:32:54.731Z,101255.69
2022-11-28T20:35:24.766Z,101255.88
2022-11-28T20:37:52.423Z,101251.34
2022-11-28T20:40:20.077Z,101254.84
2022-11-28T20:42:47.797Z,101252.38
2022-11-28T20:45:15.594Z,101259.00
2022-11-28T20:47:48.298Z,101253.63
2022-11-28T20:50:17.536Z,101255.69
2022-11-28T20:52:46.566Z,101262.94
2022-11-28T20:55:14.238Z,101255.91
2022-11-28T20:57:41.971Z,101260.69
2022-11-28T21:00:10.572Z,101271.63
2022-11-28T21:02:38.314Z,101274.31
2022-11-28T21:05:06.849Z,101270.81
2022-11-28T21:07:34.717Z,101275.56
2022-11-28T21:10:03.897Z,101271.03
2022-11-28T21:12:31.562Z,101277.44
2022-11-28T21:14:59.330Z,101281.97
2022-11-28T21:17:26.993Z,101280.34
2022-11-28T21:19:54.703Z,101284.88
2022-11-28T21:22:22.372Z,101292.13
2022-11-28T21:24:51.249Z,101289.63
2022-11-28T21:27:20.277Z,101295.00
2022-11-28T21:29:50.357Z,101285.31
2022-11-28T21:32:18.105Z,101289.03
2022-11-28T21:34:45.808Z,101293.38
2022-11-28T21:37:13.494Z,101292.75
2022-11-28T21:39:41.529Z,101291.09
2022-11-28T21:42:09.411Z,101290.28
2022-11-28T21:44:38.421Z,101291.31
2022-11-28T21:47:08.061Z,101294.00
2022-11-28T21:49:35.819Z,101294.81
2022-11-28T21:52:06.090Z,101298.13
2022-11-28T21:54:33.774Z,101296.69
2022-11-28T21:57:01.426Z,101299.56
2022-11-28T21:59:29.093Z,101298.75
2022-11-28T22:01:58.276Z,101304.34
2022-11-28T22:04:26.005Z,101303.50
2022-11-28T22:06:53.667Z,101308.88
2022-11-28T22:09:21.295Z,101302.94
2022-11-28T22:11:49.022Z,101314.72
2022-11-28T22:14:17.856Z,101305.81
2022-11-28T22:16:45.541Z,101303.56
2022-11-28T22:19:14.834Z,101305.41
2022-11-28T22:21:51.696Z,101308.31
2022-11-28T22:24:20.772Z,101309.13
2022-11-28T22:26:48.520Z,101299.41
2022-11-28T22:29:16.193Z,101303.34
2022-11-28T22:31:43.931Z,101307.69
2022-11-28T22:34:11.737Z,101314.09
2022-11-28T22:36:40.875Z,101313.28
2022-11-28T22:39:08.542Z,101310.78
2022-11-28T22:41:36.200Z,101315.34
2022-11-28T22:44:04.520Z,101317.41
2022-11-28T22:46:33.418Z,101320.09
2022-11-28T22:49:01.877Z,101324.63
2022-11-28T22:51:30.977Z,101331.88
2022-11-28T22:54:01.725Z,101331.03
2022-11-28T22:56:30.650Z,101335.59
2022-11-28T22:58:58.657Z,101334.16
2022-11-28T23:01:28.475Z,101334.31
2022-11-28T23:03:56.810Z,101330.63
2022-11-28T23:06:26.994Z,101338.69
2022-11-28T23:08:55.615Z,101333.31
2022-11-28T23:11:26.505Z,101342.38
2022-11-28T23:13:54.581Z,101339.91
2022-11-28T23:16:24.695Z,101342.59
2022-11-28T23:18:54.988Z,101346.31
2022-11-28T23:21:24.193Z,101349.81
2022-11-28T23:23:51.908Z,101354.38
2022-11-28T23:26:22.462Z,101350.03
2022-11-28T23:28:52.182Z,101355.41
2022-11-28T23:31:21.411Z,101354.56
2022-11-28T23:33:50.133Z,101352.72
2022-11-28T23:36:19.399Z,101341.97
2022-11-28T23:38:48.945Z,101350.03
2022-11-28T23:41:16.685Z,101347.53
2022-11-28T23:43:44.951Z,101351.47
2022-11-28T23:46:15.731Z,101346.72
2022-11-28T23:48:44.937Z,101353.94
2022-11-28T23:51:13.758Z,101361.19
2022-11-28T23:53:42.363Z,101362.00
2022-11-28T23:56:13.409Z,101357.66
2022-11-28T23:58:42.065Z,101357.66
